This is the latest recevied weather packets stored in our database for station/object VE6CWS-7. If no packets are shown the sender has not sent any weather packets the latest 10 day(s).
| Time | Temp. | Humidity | Pressure | Rain* | Wind** | Luminosity | Snow |
|---|---|---|---|---|---|---|---|
| 1778398263 | 8.33° C | 69% | 1015.2 hPa | 0 mm | - | - | - |
| 1778397352 | 8.33° C | 68% | 1015.2 hPa | 0 mm | - | - | - |
| 1778396509 | 8.89° C | 67% | 1015.2 hPa | 0 mm | - | - | - |
| 1778395536 | 9.44° C | 64% | 1015.3 hPa | 0 mm | - | - | - |
| 1778394635 | 8.89° C | 65% | 1015.5 hPa | 0 mm | - | - | - |
| 1778393733 | 8.89° C | 65% | 1015.5 hPa | 0 mm | - | - | - |
| 1778392891 | 8.89° C | 65% | 1015.6 hPa | 0 mm | - | - | - |
| 1778391951 | 9.44° C | 64% | 1015.6 hPa | 0 mm | - | - | - |
| 1778391038 | 9.44° C | 63% | 1015.6 hPa | 0 mm | - | - | - |
| 1778390138 | 9.44° C | 62% | 1015.7 hPa | 0 mm | - | - | - |
| 1778389297 | 10° C | 61% | 1015.6 hPa | 0 mm | - | - | - |
| 1778388347 | 10° C | 61% | 1015.6 hPa | 0 mm | - | - | - |
| 1778387442 | 11.11° C | 58% | 1015.6 hPa | 0 mm | - | - | - |
| 1778386557 | 11.67° C | 57% | 1015.5 hPa | 0 mm | - | - | - |
| 1778385701 | 11.67° C | 56% | 1015.5 hPa | 0 mm | - | - | - |
| 1778384754 | 12.22° C | 53% | 1015.4 hPa | 0 mm | - | - | - |
| 1778383851 | 13.33° C | 51% | 1015.3 hPa | 0 mm | - | - | - |
| 1778382952 | 13.89° C | 52% | 1015.2 hPa | 0 mm | - | - | - |
| 1778382106 | 14.44° C | 51% | 1014.9 hPa | 0 mm | - | - | - |
| 1778381131 | 15° C | 49% | 1014.8 hPa | 0 mm | - | - | - |
| 1778380231 | 15.56° C | 47% | 1014.7 hPa | 0 mm | - | - | - |
| 1778379332 | 16.67° C | 47% | 1014.8 hPa | 0 mm | - | - | - |
| 1778378492 | 17.22° C | 44% | 1014.8 hPa | 0 mm | - | - | - |
| 1778377539 | 17.22° C | 46% | 1014.7 hPa | 0 mm | - | - | - |
| 1778376649 | 17.22° C | 45% | 1014.7 hPa | 0 mm | - | - | - |
* Rain latest hour (hover to see other rain measurements)
** Current wind speed in m/s (hover to see current wind gust speed)